Map

Track Data

SID SEASON NUMBER BASIN SUBBASIN NAME ISO_TIME NATURE LAT LON WMO_WIND WMO_PRES WMO_AGENCY TRACK_TYPE DIST2LAND LANDFALL IFLAG USA_AGENCY USA_ATCF_ID USA_LAT USA_LON USA_RECORD USA_STATUS USA_WIND USA_PRES USA_SSHS USA_R34_NE USA_R34_SE USA_R34_SW USA_R34_NW USA_R50_NE USA_R50_SE USA_R50_SW USA_R50_NW USA_R64_NE USA_R64_SE USA_R64_SW USA_R64_NW USA_POCI USA_ROCI USA_RMW USA_EYE TOKYO_LAT TOKYO_LON TOKYO_GRADE TOKYO_WIND TOKYO_PRES TOKYO_R50_DIR TOKYO_R50_LONG TOKYO_R50_SHORT TOKYO_R30_DIR TOKYO_R30_LONG TOKYO_R30_SHORT TOKYO_LAND CMA_LAT CMA_LON CMA_CAT CMA_WIND CMA_PRES HKO_LAT HKO_LON HKO_CAT HKO_WIND HKO_PRES NEWDELHI_LAT NEWDELHI_LON NEWDELHI_GRADE NEWDELHI_WIND NEWDELHI_PRES NEWDELHI_CI NEWDELHI_DP NEWDELHI_POCI REUNION_LAT REUNION_LON REUNION_TYPE REUNION_WIND REUNION_PRES REUNION_TNUM REUNION_CI REUNION_RMW REUNION_R34_NE REUNION_R34_SE REUNION_R34_SW REUNION_R34_NW REUNION_R50_NE REUNION_R50_SE REUNION_R50_SW REUNION_R50_NW REUNION_R64_NE REUNION_R64_SE REUNION_R64_SW REUNION_R64_NW BOM_LAT BOM_LON BOM_TYPE BOM_WIND BOM_PRES BOM_TNUM BOM_CI BOM_RMW BOM_R34_NE BOM_R34_SE BOM_R34_SW BOM_R34_NW BOM_R50_NE BOM_R50_SE BOM_R50_SW BOM_R50_NW BOM_R64_NE BOM_R64_SE BOM_R64_SW BOM_R64_NW BOM_ROCI BOM_POCI BOM_EYE BOM_POS_METHOD BOM_PRES_METHOD NADI_LAT NADI_LON NADI_CAT NADI_WIND NADI_PRES WELLINGTON_LAT WELLINGTON_LON WELLINGTON_WIND WELLINGTON_PRES DS824_LAT DS824_LON DS824_STAGE DS824_WIND DS824_PRES TD9636_LAT TD9636_LON TD9636_STAGE TD9636_WIND TD9636_PRES TD9635_LAT TD9635_LON TD9635_WIND TD9635_PRES TD9635_ROCI NEUMANN_LAT NEUMANN_LON NEUMANN_CLASS NEUMANN_WIND NEUMANN_PRES MLC_LAT MLC_LON MLC_CLASS MLC_WIND MLC_PRES USA_GUST BOM_GUST BOM_GUST_PER REUNION_GUST REUNION_GUST_PER USA_SEAHGT USA_SEARAD_NE USA_SEARAD_SE USA_SEARAD_SW USA_SEARAD_NW STORM_SPEED STORM_DIR
1913052S18039 1913 18 SI MM NOT_NAMED 1913-02-21 06:00:00 NR -17.9000 38.5000 reunion main 79 79 _____O________ -1 -17.9000 38.5000 99 9.90000 4 145
1913052S18039 1913 18 SI MM NOT_NAMED 1913-02-21 09:00:00 NR -18.0452 38.6114 main 94 94 _____P________ -1 -18.0452 38.6114 99 3 143
1913052S18039 1913 18 SI MM NOT_NAMED 1913-02-21 12:00:00 NR -18.1431 38.6922 main 109 109 _____P________ -1 -18.1908 38.7230 99 4 146
1913052S18039 1913 18 SI MM NOT_NAMED 1913-02-21 15:00:00 NR -18.3400 38.8188 main 133 133 _____P________ -1 -18.3373 38.8349 99 2 153
1913052S18039 1913 18 SI MM NOT_NAMED 1913-02-21 18:00:00 NR -18.3449 38.7995 main 133 133 _____P____O___ -1 -18.4852 38.9471 99 -16.8000 37.7000 7 1 156
1913052S18039 1913 18 SI MM NOT_NAMED 1913-02-21 21:00:00 NR -18.4651 38.8792 main 158 158 _____P____P___ -1 -18.6349 39.0596 99 -17.1284 37.9930 7 3 145
1913052S18039 1913 18 SI MM NOT_NAMED 1913-02-22 00:00:00 TS -18.6262 39.0049 main 170 170 _____P___OP___ -1 -18.7870 39.1726 99 -19.2000 39.3000 TC 65 -17.4553 38.2893 7 4 140
1913052S18039 1913 18 SI MM NOT_NAMED 1913-02-22 03:00:00 TS -18.7822 39.1565 main 197 197 _____P___PP___ -1 -18.9418 39.2860 99 -19.2900 39.4625 TC 65 -17.7796 38.5909 7 5 139
1913052S18039 1913 18 SI MM NOT_NAMED 1913-02-22 06:00:00 TS -18.9986 39.3508 reunion main 225 225 _____O___OO___ -1 -19.1000 39.4000 99 9.90000 -19.4000 39.6000 TC 65 -18.1000 38.9000 7 6 140
1913052S18039 1913 18 SI MM NOT_NAMED 1913-02-22 09:00:00 TS -19.2039 39.5290 main 249 249 _____P___PP___ -1 -19.2616 39.5145 99 -19.5425 39.7000 TC 65 -18.4152 39.2180 7 5 140
1913052S18039 1913 18 SI MM NOT_NAMED 1913-02-22 12:00:00 TS -19.3871 39.6930 main 275 275 _____P___OP___ -1 -19.4259 39.6291 99 -19.7000 39.8000 TC 65 -18.7223 39.5428 7 5 139
1913052S18039 1913 18 SI MM NOT_NAMED 1913-02-22 15:00:00 TS -19.5757 39.8735 main 302 302 _____P___PP___ -1 -19.5915 39.7436 99 -19.8500 39.9500 TC 65 -19.0183 39.8711 7 5 138
1913052S18039 1913 18 SI MM NOT_NAMED 1913-02-22 18:00:00 TS -19.7625 40.0538 main 330 330 _____P___OO___ -1 -19.7574 39.8576 99 -20.0000 40.1000 TC 65 -19.3000 40.2000 7 5 138
1913052S18039 1913 18 SI MM NOT_NAMED 1913-02-22 21:00:00 TS -19.9487 40.2244 main 344 344 _____P___PP___ -1 -19.9224 39.9706 99 -20.1500 40.2075 TC 65 -19.5765 40.5373 7 5 139
1913052S18039 1913 18 SI MM NOT_NAMED 1913-02-23 00:00:00 TS -20.1307 40.3887 main 353 335 _____P___OP___ -1 -20.0853 40.0823 99 -20.3000 40.3000 TC 65 -19.8375 40.8726 7 5 140
1913052S18039 1913 18 SI MM NOT_NAMED 1913-02-23 03:00:00 TS -20.3081 40.5480 main 335 307 _____P___PP___ -1 -20.2449 40.1922 99 -20.4500 40.4000 TC 65 -20.0797 41.1966 7 5 140
1913052S18039 1913 18 SI MM NOT_NAMED 1913-02-23 06:00:00 TS -20.4787 40.7000 reunion main 307 294 _____O___OO___ -1 -20.4000 40.3000 99 9.90000 -20.6000 40.5000 TC 65 -20.3000 41.5000 7 4 141
1913052S18039 1913 18 SI MM NOT_NAMED 1913-02-23 09:00:00 TS -20.6422 40.8421 main 294 267 _____P___PP___ -1 -20.5467 40.4067 99 -20.7575 40.5925 TC 65 -20.5003 41.7720 7 4 140
1913052S18039 1913 18 SI MM NOT_NAMED 1913-02-23 12:00:00 TS -20.7922 40.9837 main 267 255 _____P___OP___ -1 -20.6893 40.5116 99 -20.9000 40.7000 TC 65 -20.6796 42.0230 7 4 135
1913052S18039 1913 18 SI MM NOT_NAMED 1913-02-23 15:00:00 TS -20.9216 41.1383 main 255 232 _____P___PP___ -1 -20.8284 40.6144 99 -21.0075 40.8500 TC 65 -20.8441 42.2625 7 4 131
1913052S18039 1913 18 SI MM NOT_NAMED 1913-02-23 18:00:00 TS -21.0412 41.2933 main 232 215 _____P___OO___ -1 -20.9649 40.7154 99 -21.1000 41.0000 TC 65 -21.0000 42.5000 7 4 130
1913052S18039 1913 18 SI MM NOT_NAMED 1913-02-23 21:00:00 TS -21.1618 41.4433 main 215 192 _____P___PP___ -1 -21.0995 40.8144 99 -21.1925 41.1150 TC 65 -21.1612 42.7582 7 4 132
1913052S18039 1913 18 SI MM NOT_NAMED 1913-02-24 00:00:00 TS -21.2870 41.5817 main 192 178 _____P___OP___ -1 -21.2331 40.9115 99 -21.3000 41.2000 TC 65 -21.3150 43.0151 7 4 138
1913052S18039 1913 18 SI MM NOT_NAMED 1913-02-24 03:00:00 TS -21.4274 41.7016 main 178 159 _____P___PP___ -1 -21.3663 41.0067 99 -21.4425 41.2500 TC 65 -21.4612 43.2644 7 4 143
1913052S18039 1913 18 SI MM NOT_NAMED 1913-02-24 06:00:00 TS -21.5731 41.8144 reunion main 159 145 _____O___OO___ -1 -21.5000 41.1000 99 9.90000 -21.6000 41.3000 TC 65 -21.6000 43.5000 7 4 144
1913052S18039 1913 18 SI MM NOT_NAMED 1913-02-24 09:00:00 TS -21.7219 41.9303 main 145 128 _____P___PP___ -1 -21.6451 41.1922 99 -21.7575 41.3925 TC 65 -21.7360 43.7105 7 4 143
1913052S18039 1913 18 SI MM NOT_NAMED 1913-02-24 12:00:00 TS -21.8640 42.0475 main 128 105 _____P___OP___ -1 -21.7911 41.2823 99 -21.9000 41.5000 TC 65 -21.8647 43.9078 7 3 140
1913052S18039 1913 18 SI MM NOT_NAMED 1913-02-24 15:00:00 TS -21.9897 42.1672 main 105 93 _____P___PP___ -1 -21.9366 41.3706 99 -22.0000 41.6000 TC 65 -21.9861 44.1011 7 3 138
1913052S18039 1913 18 SI MM NOT_NAMED 1913-02-24 18:00:00 TS -22.1112 42.2894 main 93 82 _____P___OO___ -1 -22.0799 41.4576 99 -22.1000 41.7000 TC 65 -22.1000 44.3000 7 3 137
1913052S18039 1913 18 SI MM NOT_NAMED 1913-02-24 21:00:00 TS -22.2397 42.4172 main 82 71 _____P___PP___ -1 -22.2194 41.5437 99 -22.2500 41.8000 TC 65 -22.2031 44.5220 7 3 137
1913052S18039 1913 18 SI MM NOT_NAMED 1913-02-25 00:00:00 TS -22.3634 42.5448 main 72 56 _____P___OP___ -1 -22.3537 41.6291 99 -22.4000 41.9000 TC 65 -22.3000 44.7502 7 3 135
1913052S18039 1913 18 SI MM NOT_NAMED 1913-02-25 03:00:00 TS -22.4731 42.6716 main 56 46 _____P___PP___ -1 -22.4810 41.7145 99 -22.5075 42.0075 TC 65 -22.3969 44.9783 7 3 133
1913052S18039 1913 18 SI MM NOT_NAMED 1913-02-25 06:00:00 TS -22.5769 42.7913 reunion main 52 42 _____O___OO___ -1 -22.6000 41.8000 99 9.90000 -22.6000 42.1000 TC 65 -22.5000 45.2000 7 3 135
1913052S18039 1913 18 SI MM NOT_NAMED 1913-02-25 09:00:00 TS -22.6830 42.8982 main 46 38 _____P___PP___ -1 -22.7022 41.8877 99 -22.7000 42.1575 TC 65 -22.6259 45.4112 7 3 138
1913052S18039 1913 18 SI MM NOT_NAMED 1913-02-25 12:00:00 TS -22.7882 42.9976 main 40 30 _____P___OP___ -1 -22.7956 41.9754 99 -22.8000 42.2000 TC 65 -22.7574 45.6150 7 3 139
1913052S18039 1913 18 SI MM NOT_NAMED 1913-02-25 15:00:00 TS -22.8909 43.0923 main 32 30 _____P___PP___ -1 -22.8823 42.0630 99 -22.9000 42.2500 TC 65 -22.8852 45.8112 7 3 139
1913052S18039 1913 18 SI MM NOT_NAMED 1913-02-25 18:00:00 TS -22.9893 43.1839 main 30 30 _____P___OO___ -1 -22.9649 42.1505 99 -23.0000 42.3000 TC 65 -23.0000 46.0000 7 3 138
1913052S18039 1913 18 SI MM NOT_NAMED 1913-02-25 21:00:00 TS -23.0800 43.2739 main 30 20 _____P___PP___ -1 -23.0456 42.2380 99 -23.0925 42.3425 TC 65 -23.0893 46.1824 7 3 136
1913052S18039 1913 18 SI MM NOT_NAMED 1913-02-26 00:00:00 TS -23.1729 43.3708 main 20 10 _____P___OP___ -1 -23.1268 42.3254 99 -23.2000 42.4000 TC 65 -23.1649 46.3577 7 3 136
1913052S18039 1913 18 SI MM NOT_NAMED 1913-02-26 03:00:00 TS -23.2789 43.4846 main 10 0 _____P___PP___ -1 -23.2108 42.4127 99 -23.3500 42.4850 TC 65 -23.2330 46.5292 7 3 134
1913052S18039 1913 18 SI MM NOT_NAMED 1913-02-26 06:00:00 TS -23.3875 43.6106 reunion main 10 0 _____O___OO___ -1 -23.3000 42.5000 99 9.90000 -23.5000 42.6000 TC 65 -23.3000 46.7000 7 3 131
1913052S18039 1913 18 SI MM NOT_NAMED 1913-02-26 09:00:00 TS -23.4914 43.7483 main 10 0 _____P___PP___ -1 -23.4050 42.5837 99 -23.6075 42.7575 TC 65 -23.3749 46.8751 7 3 130
1913052S18039 1913 18 SI MM NOT_NAMED 1913-02-26 12:00:00 TS -23.5911 43.8793 main 0 0 _____P___OP___ -1 -23.5146 42.6670 99 -23.7000 42.9000 TC 65 -23.4499 47.0501 7 3 133
1913052S18039 1913 18 SI MM NOT_NAMED 1913-02-26 15:00:00 TS -23.6888 43.9797 main 0 0 _____P___PP___ -1 -23.6274 42.7506 99 -23.8000 42.9576 TC 65 -23.5249 47.2251 7 3 138
1913052S18039 1913 18 SI MM NOT_NAMED 1913-02-26 18:00:00 TS -23.7856 44.0732 main 0 0 _____P___OO___ -1 -23.7423 42.8352 99 -23.9000 43.0000 TC 65 -23.6000 47.4000 7 3 136
1913052S18039 1913 18 SI MM NOT_NAMED 1913-02-26 21:00:00 TS -23.8807 44.1788 main 0 0 _____P___PP___ -1 -23.8582 42.9217 99 -23.9925 43.0925 TC 65 -23.6751 47.5749 7 2 0
1913052S18039 1913 18 SI MM NOT_NAMED 1913-02-27 00:00:00 TS -23.9964 44.0595 main 0 0 _____P___OP___ -1 -23.9739 43.0108 99 -24.1000 43.2000 TC 65 -23.7502 47.7498 7 4 225
1913052S18039 1913 18 SI MM NOT_NAMED 1913-02-27 03:00:00 TS -24.1351 43.9024 main 0 0 _____P___PP___ -1 -24.0882 43.1033 99 -24.2500 43.3000 TC 65 -23.8251 47.9248 7 4 229
1913052S18039 1913 18 SI MM NOT_NAMED 1913-02-27 06:00:00 TS -24.2846 43.6977 reunion main 10 10 _____O___OO___ -1 -24.2000 43.2000 99 9.90000 -24.4000 43.4000 TC 65 -23.9000 48.1000 7 5 236
1913052S18039 1913 18 SI MM NOT_NAMED 1913-02-27 09:00:00 TS -24.4293 43.4262 main 40 30 _____P___P____ -1 -24.3024 43.2826 99 -24.5075 43.5000 TC 65 7 3 213
1913052S18039 1913 18 SI MM NOT_NAMED 1913-02-27 12:00:00 TS -24.5342 43.5222 main 30 20 _____P___O____ -1 -24.4025 43.3667 99 -24.6000 43.6000 TC 65 7 3 141
1913052S18039 1913 18 SI MM NOT_NAMED 1913-02-27 15:00:00 TS -24.6360 43.6093 main 20 15 _____P___P____ -1 -24.5011 43.4560 99 -24.7000 43.7000 TC 65 7 3 141
1913052S18039 1913 18 SI MM NOT_NAMED 1913-02-27 18:00:00 TS -24.7354 43.7005 main 15 15 _____P___O____ -1 -24.5989 43.5537 99 -24.8000 43.8000 TC 65 3 139
1913052S18039 1913 18 SI MM NOT_NAMED 1913-02-27 21:00:00 TS -24.8335 43.7970 main 15 10 _____P___P____ -1 -24.6970 43.6635 99 -24.8999 43.8776 TC 65 3 133
1913052S18039 1913 18 SI MM NOT_NAMED 1913-02-28 00:00:00 TS -24.9320 43.9296 main 10 0 _____P___O____ -1 -24.7960 43.7888 99 -25.0000 44.0000 TC 65 4 123
1913052S18039 1913 18 SI MM NOT_NAMED 1913-02-28 03:00:00 TS -25.0309 44.1259 main 0 0 _____P___P____ -1 -24.8967 43.9331 99 -25.1000 44.2200 TC 65 4 117
1913052S18039 1913 18 SI MM NOT_NAMED 1913-02-28 06:00:00 TS -25.1309 44.3658 reunion main 0 0 _____O___O____ -1 -25.0000 44.1000 99 9.90000 -25.2000 44.5000 TC 65 5 114
1913052S18039 1913 18 SI MM NOT_NAMED 1913-02-28 09:00:00 TS -25.2328 44.6206 main 0 0 _____P___P____ -1 -25.1054 44.2725 99 -25.3000 44.7925 TC 65 5 114
1913052S18039 1913 18 SI MM NOT_NAMED 1913-02-28 12:00:00 TS -25.3375 44.8883 main 0 0 _____P___O____ -1 -25.2126 44.4650 99 -25.4000 45.1000 TC 65 5 113
1913052S18039 1913 18 SI MM NOT_NAMED 1913-02-28 15:00:00 TS -25.4435 45.1587 main 0 0 _____P___P____ -1 -25.3218 44.6784 99 -25.4925 45.4076 TC 65 5 115
1913052S18039 1913 18 SI MM NOT_NAMED 1913-02-28 18:00:00 TS -25.5452 45.3757 main 0 0 _____P___O____ -1 -25.4330 44.9141 99 -25.6000 45.7000 TC 65 4 120
1913052S18039 1913 18 SI MM NOT_NAMED 1913-02-28 21:00:00 TS -25.6504 45.5603 main 15 15 _____P___P____ -1 -25.5463 45.1729 99 -25.7400 45.9599 TC 65 4 123
1913052S18039 1913 18 SI MM NOT_NAMED 1913-03-01 00:00:00 TS -25.7413 45.7040 main 22 22 _____P___O____ -1 -25.6619 45.4561 99 -25.9000 46.2000 TC 65 2 125
1913052S18039 1913 18 SI MM NOT_NAMED 1913-03-01 03:00:00 NR -25.7798 45.7647 main 37 37 _____P________ -1 -25.7798 45.7647 99 TC 4 114
1913052S18039 1913 18 SI MM NOT_NAMED 1913-03-01 06:00:00 NR -25.9000 46.1000 reunion main 63 63 _____O________ -1 -25.9000 46.1000 99 9.90000 7 111
1913052S18039 1913 18 SI MM NOT_NAMED 1913-03-01 09:00:00 NR -26.0225 46.4623 main 89 89 _____P________ -1 -26.0225 46.4623 99 7 110
1913052S18039 1913 18 SI MM NOT_NAMED 1913-03-01 12:00:00 NR -26.1468 46.8492 main 100 100 _____P________ -1 -26.1468 46.8492 99 8 109
1913052S18039 1913 18 SI MM NOT_NAMED 1913-03-01 15:00:00 NR -26.2722 47.2574 main 132 132 _____P________ -1 -26.2722 47.2574 99 8 109
1913052S18039 1913 18 SI MM NOT_NAMED 1913-03-01 18:00:00 NR -26.3984 47.6835 main 161 161 _____P________ -1 -26.3984 47.6835 99 8 108
1913052S18039 1913 18 SI MM NOT_NAMED 1913-03-01 21:00:00 NR -26.5247 48.1242 main 191 191 _____P________ -1 -26.5247 48.1242 99 8 108
1913052S18039 1913 18 SI MM NOT_NAMED 1913-03-02 00:00:00 NR -26.6507 48.5762 main 239 239 _____P________ -1 -26.6507 48.5762 99 9 107
1913052S18039 1913 18 SI MM NOT_NAMED 1913-03-02 03:00:00 NR -26.7760 49.0359 main 275 275 _____P________ -1 -26.7760 49.0359 99 9 107
1913052S18039 1913 18 SI MM NOT_NAMED 1913-03-02 06:00:00 NR -26.9000 49.5000 reunion main 320 _____O________ -1 -26.9000 49.5000 99 9.90000 9 107

About IBTrACS Database

This database is a web-friendly format of International Best Track Archive for Climate Stewardship (IBTrACS), a global best track data archive curated by NOAA dating back to 1842.

Updated: 2021-11-26